createdAt,value
2019-02-07T00:02:20.242Z,91.20
2019-02-07T00:12:25.062Z,91.10
2019-02-07T00:22:29.879Z,91.30
2019-02-07T00:32:47.877Z,91.30
2019-02-07T00:42:52.972Z,91.60
2019-02-07T00:52:57.813Z,91.10
2019-02-07T01:03:03.249Z,91.10
2019-02-07T01:13:09.554Z,91.50
2019-02-07T01:23:14.485Z,91.50
2019-02-07T01:33:19.389Z,91.80
2019-02-07T01:43:25.552Z,91.70
2019-02-07T01:53:31.115Z,91.90
2019-02-07T02:03:36.004Z,92.20
2019-02-07T02:13:40.938Z,92.00
2019-02-07T02:23:45.825Z,92.40
2019-02-07T02:33:50.763Z,92.20
2019-02-07T02:43:55.725Z,92.10
2019-02-07T02:54:01.886Z,92.20
2019-02-07T03:04:11.633Z,91.90
2019-02-07T03:14:18.156Z,92.00
2019-02-07T03:24:36.764Z,91.90
2019-02-07T03:34:43.253Z,91.80
2019-02-07T03:45:04.582Z,92.00
2019-02-07T03:55:11.050Z,91.90
2019-02-07T04:05:20.605Z,92.00
2019-02-07T04:15:27.085Z,91.60
2019-02-07T04:25:36.231Z,91.60
2019-02-07T04:35:59.422Z,91.60
2019-02-07T04:46:14.055Z,92.10
2019-02-07T04:56:26.331Z,92.30
2019-02-07T05:06:49.054Z,92.10
2019-02-07T05:17:07.954Z,91.70
2019-02-07T05:27:14.425Z,91.80
2019-02-07T05:47:52.509Z,91.40
2019-02-07T05:58:04.628Z,91.40
2019-02-07T06:08:11.246Z,91.20
2019-02-07T06:18:32.728Z,91.40
2019-02-07T06:28:47.873Z,90.60
2019-02-07T06:38:57.008Z,90.70
2019-02-07T06:49:46.052Z,90.40
2019-02-07T07:00:01.037Z,90.10
2019-02-07T07:10:18.803Z,90.10
2019-02-07T07:20:37.235Z,89.40
2019-02-07T07:30:59.968Z,87.90
2019-02-07T07:41:08.342Z,86.70
2019-02-07T07:51:20.701Z,85.80
2019-02-07T08:01:45.371Z,84.90
2019-02-07T08:12:06.597Z,83.70
2019-02-07T08:22:25.024Z,82.20
2019-02-07T08:32:40.183Z,81.30
2019-02-07T08:42:56.885Z,80.50
2019-02-07T08:53:06.522Z,79.30
2019-02-07T09:03:14.031Z,78.30
2019-02-07T09:13:43.553Z,76.70
2019-02-07T09:24:06.356Z,73.90
2019-02-07T09:34:12.649Z,73.10
2019-02-07T09:44:28.263Z,73.60
2019-02-07T09:54:34.572Z,69.90
2019-02-07T10:04:40.901Z,70.40
2019-02-07T10:14:53.221Z,69.20
2019-02-07T10:25:11.840Z,66.60
2019-02-07T10:35:45.618Z,64.50
2019-02-07T10:45:51.918Z,63.80
2019-02-07T10:56:07.595Z,65.30
2019-02-07T11:06:26.098Z,66.50
2019-02-07T11:16:48.143Z,67.00
2019-02-07T11:26:54.527Z,65.70
2019-02-07T11:37:12.872Z,64.50
2019-02-07T11:47:25.599Z,65.30
2019-02-07T11:57:45.040Z,64.50
2019-02-07T12:08:00.627Z,60.70
2019-02-07T12:18:09.635Z,56.60
2019-02-07T12:28:36.071Z,56.00
2019-02-07T12:48:57.266Z,54.20
2019-02-07T12:59:09.376Z,50.90
2019-02-07T13:09:28.173Z,50.90
2019-02-07T13:19:40.851Z,54.10
2019-02-07T13:29:50.883Z,52.30
2019-02-07T13:40:01.491Z,49.10
2019-02-07T13:50:12.457Z,47.80
2019-02-07T14:00:26.250Z,46.80
2019-02-07T14:10:35.797Z,50.80
2019-02-07T14:20:58.766Z,52.20
2019-02-07T14:31:14.597Z,49.30
2019-02-07T14:41:26.960Z,52.20
2019-02-07T14:51:38.226Z,55.50
2019-02-07T15:01:43.157Z,57.20
2019-02-07T15:11:47.892Z,58.00
2019-02-07T15:21:52.812Z,60.40
2019-02-07T15:32:00.587Z,63.50
2019-02-07T15:42:05.673Z,65.00
2019-02-07T15:52:10.422Z,67.00
2019-02-07T16:02:15.993Z,69.20
2019-02-07T16:12:20.752Z,71.10
2019-02-07T16:33:12.462Z,74.70
2019-02-07T16:43:17.235Z,75.60
2019-02-07T16:53:23.140Z,76.00
2019-02-07T17:03:27.990Z,76.30
2019-02-07T17:13:35.001Z,77.10
2019-02-07T17:23:41.168Z,77.70
2019-02-07T17:33:48.952Z,78.30
2019-02-07T17:43:53.917Z,79.60
2019-02-07T17:53:58.802Z,80.10
2019-02-07T18:04:03.507Z,80.80
2019-02-07T18:14:08.273Z,80.90
2019-02-07T18:24:13.159Z,81.40
2019-02-07T18:34:17.917Z,81.20
2019-02-07T18:44:22.679Z,81.30
2019-02-07T18:54:27.425Z,81.30
2019-02-07T19:15:26.008Z,80.30
2019-02-07T19:25:31.606Z,79.60
2019-02-07T19:35:37.297Z,79.30
2019-02-07T19:45:44.137Z,79.80
2019-02-07T19:55:50.192Z,79.50
2019-02-07T20:06:07.408Z,79.40
2019-02-07T20:16:12.703Z,79.20
2019-02-07T20:26:18.811Z,78.70
2019-02-07T20:36:24.626Z,79.10
2019-02-07T20:46:30.928Z,78.80
2019-02-07T20:56:36.634Z,79.20
2019-02-07T21:06:42.737Z,79.30
2019-02-07T21:16:48.553Z,80.30
2019-02-07T21:26:54.132Z,79.70
2019-02-07T21:36:59.625Z,80.00
2019-02-07T21:47:05.027Z,80.10
2019-02-07T21:57:10.726Z,80.40
2019-02-07T22:07:16.233Z,81.10
2019-02-07T22:17:22.232Z,81.30
2019-02-07T22:27:27.726Z,81.10
2019-02-07T22:37:33.214Z,81.60
2019-02-07T22:47:38.614Z,82.00
2019-02-07T22:57:44.217Z,82.70
2019-02-07T23:07:59.394Z,83.20
2019-02-07T23:18:06.913Z,83.60
2019-02-07T23:28:12.415Z,84.70
2019-02-07T23:38:17.862Z,85.20
2019-02-07T23:48:23.271Z,85.90
2019-02-07T23:58:28.652Z,85.80
